Hauptseite
METAR-TAF:

METAR-TAF

Flughäfen :

Bohrplattform

D15-fa-1, Niederlande

Breite: 54-19-32N, Länge: 2-56-09E, Höhe: 36 m

Beobachtung

Neuester Wetterbericht von vor 25 Minuten, um 15:55 UTC
Wind 29 kt aus Südwest
Temperatur 9°C
Luftfeuchtigkeit 93%
Luftdruck 993 hPa
Sichtweite 10 km oder mehr

METAR: EHDV 241555Z AUTO 23029KT 9999 FEW014/// SCT026/// BKN031/// 09/08 Q0993

Zeit: 17:20 (16:20 UTC)


TAF: fehlend

Wetterbeobachtungen und Prognosen von mehr als 4000 Flughäfen (METAR und TAF Bericht).

Die verfügbaren Stationen werden durch gelbe und rote Markierungen auf der Karte dargestellt.

Führen Sie die Maus auf sie, um den Namen der Station zu sehen.

Darauf klicken, um die Beobachtung von Wetterbeobachtungen und Prognosen zu sehen.

Um die Karte zu ändern : klicken Sie auf den grünen Tasten mit einem schwarzen Kreuz Zum Vergrößern, auf den grünen Button mit einem Gedankenstrich zu verkleinern, oder auf die grünen Pfeile für benachbarte Karten.


METAR-TAF: